Aviation Digital Data Service (ADDS)

Output produced by METARs form (0742 UTC 20 October 2018)
found at http://www.aviationweather.gov/metar/data/
 
FSIA 200700Z 04005KT 9999 FEW020CB SCT023 29/24 Q1013 NOSIG
TAF FSIA 200501Z 2006/2106 36010KT 9999 SCT020 BKN070 
     TEMPO 1910/1916 8000 SHRA FEW012 FEW015CB BKN018